Time;durP1;ratioP1;P1;durP2;ratioP2;P2;SDS_P1;SDS_P2;PMS_P1;PMS_P2;Temp;Humidity;BMP_temperature;BMP_pressure;BME280_temperature;BME280_humidity;BME280_pressure;Samples;Min_cycle;Max_cycle;Signal;HPM_P1;HPM_P2
2024/04/11 00:00:29;;;;;;;;;;;;;;;4.57;100.00;96635.13;5476591;26;19928;-70
2024/04/11 00:02:57;;;;;;;;;;;;;;;4.62;100.00;96632.63;5474685;26;20020;-70
2024/04/11 00:05:25;;;;;;;;;;;;;;;4.62;100.00;96621.16;5485809;26;19932;-70
2024/04/11 00:07:54;;;;;;;;;;;;;;;4.64;100.00;96622.56;5475830;26;19934;-70
2024/04/11 00:10:21;;;;;;;;;;;;;;;4.66;100.00;96617.84;5476374;26;19935;-70
2024/04/11 00:12:50;;;;;;;;;;;;;;;4.70;100.00;96616.38;5476085;26;19934;-70
2024/04/11 00:15:17;;;;;;;;;;;;;;;4.72;100.00;96612.69;5476521;26;19928;-70
2024/04/11 00:17:45;;;;;;;;;;;;;;;4.70;100.00;96611.06;5476645;26;20358;-70
2024/04/11 00:20:12;;;;;;;;;;;;;;;4.69;100.00;96612.09;5473977;26;20033;-70
2024/04/11 00:22:39;;;;;;;;;;;;;;;4.66;100.00;96609.88;5476289;26;20247;-70
2024/04/11 00:25:07;;;;;;;;;;;;;;;4.65;100.00;96610.91;5476215;26;19961;-70
2024/04/11 00:27:34;;;;;;;;;;;;;;;4.65;100.00;96610.91;5475959;26;19928;-70
2024/04/11 00:30:02;;;;;;;;;;;;;;;4.67;100.00;96616.84;5475993;26;20355;-70
2024/04/11 00:32:30;;;;;;;;;;;;;;;4.69;100.00;96609.41;5476255;26;20039;-70
2024/04/11 00:35:01;;;;;;;;;;;;;;;4.70;100.00;96608.41;5476042;26;20646;-70
2024/04/11 00:37:31;;;;;;;;;;;;;;;4.72;100.00;96615.34;5473512;26;20398;-71
2024/04/11 00:39:58;;;;;;;;;;;;;;;4.69;100.00;96617.41;5475687;26;19928;-70
2024/04/11 00:42:26;;;;;;;;;;;;;;;4.67;100.00;96619.50;5474189;26;19927;-70
2024/04/11 00:44:53;;;;;;;;;;;;;;;4.62;100.00;96621.97;5476141;26;20402;-70
2024/04/11 00:47:21;;;;;;;;;;;;;;;4.60;100.00;96609.91;5475903;26;19932;-70
2024/04/11 00:49:48;;;;;;;;;;;;;;;4.55;100.00;96604.41;5475363;26;19934;-70
2024/04/11 00:52:16;;;;;;;;;;;;;;;4.50;100.00;96602.41;5475371;26;19928;-70
2024/04/11 00:54:44;;;;;;;;;;;;;;;4.37;100.00;96591.84;5476119;26;20354;-70
2024/04/11 00:57:12;;;;;;;;;;;;;;;4.41;100.00;96595.69;5475849;26;19934;-70
2024/04/11 00:59:40;;;;;;;;;;;;;;;4.39;100.00;96581.78;5474159;26;19928;-70
2024/04/11 01:02:09;;;;;;;;;;;;;;;4.43;100.00;96585.66;5475559;26;19935;-70
2024/04/11 01:04:36;;;;;;;;;;;;;;;4.47;100.00;96580.69;5475875;26;19928;-70
2024/04/11 01:07:07;;;;;;;;;;;;;;;4.45;100.00;96575.63;5475744;26;19983;-69
2024/04/11 01:09:38;;;;;;;;;;;;;;;4.34;100.00;96565.66;5475758;26;19934;-70
2024/04/11 01:12:07;;;;;;;;;;;;;;;4.31;100.00;96550.91;5474213;26;20432;-70
2024/04/11 01:14:34;;;;;;;;;;;;;;;4.35;100.00;96546.00;5473842;26;19935;-70
2024/04/11 01:17:02;;;;;;;;;;;;;;;4.34;100.00;96544.34;5475768;26;20308;-70
2024/04/11 01:19:29;;;;;;;;;;;;;;;4.36;100.00;96539.63;5474007;26;19928;-70
2024/04/11 01:21:57;;;;;;;;;;;;;;;4.40;100.00;96535.50;5474146;26;19928;-70
2024/04/11 01:24:27;;;;;;;;;;;;;;;4.42;100.00;96538.78;5473810;26;20716;-70
2024/04/11 01:26:56;;;;;;;;;;;;;;;4.40;100.00;96538.16;5475679;26;19928;-70
2024/04/11 01:29:25;;;;;;;;;;;;;;;4.38;100.00;96539.44;5473898;26;19927;-71
2024/04/11 01:31:57;;;;;;;;;;;;;;;4.39;100.00;96535.72;5475574;26;20273;-70
2024/04/11 01:34:24;;;;;;;;;;;;;;;4.35;100.00;96530.03;5473270;26;19956;-70
2024/04/11 01:36:52;;;;;;;;;;;;;;;4.21;100.00;96528.50;5475118;26;20390;-70
2024/04/11 01:39:20;;;;;;;;;;;;;;;4.24;100.00;96517.41;5475516;26;19928;-70
2024/04/11 01:41:47;;;;;;;;;;;;;;;4.26;100.00;96505.50;5474428;26;20304;-70
2024/04/11 01:44:15;;;;;;;;;;;;;;;4.30;100.00;96496.09;5475218;26;20501;-70
2024/04/11 01:46:45;;;;;;;;;;;;;;;4.30;100.00;96487.28;5475422;26;19928;-70
2024/04/11 01:49:13;;;;;;;;;;;;;;;4.34;100.00;96485.81;5475367;26;20350;-70
2024/04/11 01:51:41;;;;;;;;;;;;;;;4.39;100.00;96472.66;5474936;26;19928;-71
2024/04/11 01:54:10;;;;;;;;;;;;;;;4.40;100.00;96476.13;5475200;26;19927;-70
2024/04/11 01:56:38;;;;;;;;;;;;;;;4.40;100.00;96478.78;5474116;26;19934;-70
2024/04/11 01:59:06;;;;;;;;;;;;;;;4.35;100.00;96482.13;5473255;26;19928;-70
2024/04/11 02:01:36;;;;;;;;;;;;;;;4.32;100.00;96486.00;5475074;26;19931;-71
2024/04/11 02:04:09;;;;;;;;;;;;;;;4.32;100.00;96483.34;5475088;26;19935;-70
2024/04/11 02:06:38;;;;;;;;;;;;;;;4.33;100.00;96476.19;5473992;26;20286;-71
2024/04/11 02:09:09;;;;;;;;;;;;;;;4.33;100.00;96473.53;5473405;26;19928;-70
2024/04/11 02:11:41;;;;;;;;;;;;;;;4.31;100.00;96475.56;5473422;26;19934;-70
2024/04/11 02:14:08;;;;;;;;;;;;;;;4.29;100.00;96478.47;5475052;26;20073;-70
2024/04/11 02:16:36;;;;;;;;;;;;;;;4.27;100.00;96477.06;5473402;26;19928;-71
2024/04/11 02:19:07;;;;;;;;;;;;;;;4.25;100.00;96476.44;5474637;26;19928;-70
2024/04/11 02:21:40;;;;;;;;;;;;;;;4.24;100.00;96474.81;5474941;26;19928;-70
2024/04/11 02:24:09;;;;;;;;;;;;;;;4.23;100.00;96474.03;5474678;26;19932;-70
2024/04/11 02:26:36;;;;;;;;;;;;;;;4.23;100.00;96474.03;5474072;26;19964;-70
2024/04/11 02:29:04;;;;;;;;;;;;;;;4.23;100.00;96473.22;5472895;26;19927;-70
2024/04/11 02:31:34;;;;;;;;;;;;;;;4.22;100.00;96472.41;5474015;26;19931;-70
2024/04/11 02:34:02;;;;;;;;;;;;;;;4.23;100.00;96466.06;5474570;26;20307;-71
2024/04/11 02:36:30;;;;;;;;;;;;;;;4.25;100.00;96463.16;5474493;26;20330;-70
2024/04/11 02:38:58;;;;;;;;;;;;;;;4.24;100.00;96462.34;5474159;26;19928;-70
2024/04/11 02:41:27;;;;;;;;;;;;;;;4.25;100.00;96465.81;5474348;26;19931;-70
2024/04/11 02:43:55;;;;;;;;;;;;;;;4.28;100.00;96460.88;5474655;26;19928;-70
2024/04/11 02:46:25;;;;;;;;;;;;;;;4.30;100.00;96453.50;5474067;26;19928;-70
2024/04/11 02:48:53;;;;;;;;;;;;;;;4.33;100.00;96452.22;5474323;26;19928;-69
2024/04/11 02:51:22;;;;;;;;;;;;;;;4.34;100.00;96442.41;5473761;26;19934;-71
2024/04/11 02:53:50;;;;;;;;;;;;;;;4.36;100.00;96440.34;5474063;26;19927;-71
2024/04/11 02:56:18;;;;;;;;;;;;;;;4.34;100.00;96437.91;5417904;20;19930;-73
2024/04/11 02:58:45;;;;;;;;;;;;;;;4.30;100.00;96432.22;5384906;26;19928;-73
2024/04/11 03:01:15;;;;;;;;;;;;;;;4.30;100.00;96442.03;5385891;26;19930;-72
2024/04/11 03:03:43;;;;;;;;;;;;;;;4.28;100.00;96441.44;5386469;26;20328;-72
2024/04/11 03:06:12;;;;;;;;;;;;;;;4.27;100.00;96440.63;5387099;26;19936;-73
2024/04/11 03:08:40;;;;;;;;;;;;;;;4.28;100.00;96444.09;5385975;26;20375;-72
2024/04/11 03:11:09;;;;;;;;;;;;;;;4.29;100.00;96437.75;5382131;26;19941;-72
2024/04/11 03:13:37;;;;;;;;;;;;;;;4.31;100.00;96430.34;5384405;26;20584;-72
2024/04/11 03:16:04;;;;;;;;;;;;;;;4.27;100.00;96437.13;5385487;26;19929;-72
2024/04/11 03:18:32;;;;;;;;;;;;;;;4.26;100.00;96443.50;5386040;26;19936;-72
2024/04/11 03:21:03;;;;;;;;;;;;;;;4.31;100.00;96443.66;5384130;26;19929;-72
2024/04/11 03:23:31;;;;;;;;;;;;;;;4.27;100.00;96443.28;5378857;26;19936;-73
2024/04/11 03:25:58;;;;;;;;;;;;;;;4.25;100.00;96440.00;5384680;26;20548;-72
2024/04/11 03:28:26;;;;;;;;;;;;;;;4.21;100.00;96438.84;5383346;26;19935;-73
2024/04/11 03:31:00;;;;;;;;;;;;;;;4.17;100.00;96436.81;5383790;26;19933;-72
2024/04/11 03:33:28;;;;;;;;;;;;;;;4.16;100.00;96438.69;5381078;26;19929;-72
2024/04/11 03:35:56;;;;;;;;;;;;;;;4.16;100.00;96436.03;5385150;26;19929;-73
2024/04/11 03:38:24;;;;;;;;;;;;;;;4.15;100.00;96445.03;5386902;26;20270;-72
2024/04/11 03:40:59;;;;;;;;;;;;;;;4.14;100.00;96448.72;5386663;26;19936;-73
2024/04/11 03:43:27;;;;;;;;;;;;;;;4.13;100.00;96452.41;5383432;26;19929;-73
2024/04/11 03:46:08;;;;;;;;;;;;;;;4.08;100.00;96454.91;5386317;26;20396;-72
2024/04/11 03:48:36;;;;;;;;;;;;;;;4.04;100.00;96464.34;5387434;26;19933;-72
2024/04/11 03:51:13;;;;;;;;;;;;;;;4.02;100.00;96463.72;5386767;26;19928;-73
2024/04/11 03:53:43;;;;;;;;;;;;;;;3.95;100.00;96462.97;5385248;26;19947;-73
2024/04/11 03:56:14;;;;;;;;;;;;;;;3.94;100.00;96461.34;5388775;26;19929;-73
2024/04/11 03:58:42;;;;;;;;;;;;;;;3.85;100.00;96458.13;5388456;26;19936;-73
2024/04/11 04:01:12;;;;;;;;;;;;;;;3.83;100.00;96454.88;5387400;26;19930;-73
2024/04/11 04:03:40;;;;;;;;;;;;;;;3.83;100.00;96451.41;5386864;26;20351;-72
2024/04/11 04:06:12;;;;;;;;;;;;;;;3.84;100.00;96456.50;5386147;26;19930;-73
2024/04/11 04:08:40;;;;;;;;;;;;;;;3.83;100.00;96446.06;5387162;26;19930;-73
2024/04/11 04:11:08;;;;;;;;;;;;;;;3.83;100.00;96446.06;5387837;26;20350;-73
2024/04/11 04:13:37;;;;;;;;;;;;;;;3.82;100.00;96445.25;5391218;26;19929;-72
2024/04/11 04:16:08;;;;;;;;;;;;;;;3.78;100.00;96444.06;5385096;26;19935;-72
2024/04/11 04:18:36;;;;;;;;;;;;;;;3.77;100.00;96439.78;5387982;26;20355;-72
2024/04/11 04:21:04;;;;;;;;;;;;;;;3.75;100.00;96439.16;5389911;26;19928;-73
2024/04/11 04:23:32;;;;;;;;;;;;;;;3.76;100.00;96435.50;5388136;26;19930;-73
2024/04/11 04:26:07;;;;;;;;;;;;;;;3.76;100.00;96434.66;5384806;26;19929;-72
2024/04/11 04:28:36;;;;;;;;;;;;;;;3.75;100.00;96438.34;5389231;26;20378;-73
2024/04/11 04:31:14;;;;;;;;;;;;;;;3.76;100.00;96440.81;5385426;26;20364;-73
2024/04/11 04:33:48;;;;;;;;;;;;;;;3.75;100.00;96439.16;5387967;26;20384;-72
2024/04/11 04:36:19;;;;;;;;;;;;;;;3.74;100.00;96432.22;5384070;26;19929;-73
2024/04/11 04:38:49;;;;;;;;;;;;;;;3.76;100.00;96435.50;5386753;26;19929;-73
2024/04/11 04:41:17;;;;;;;;;;;;;;;3.82;100.00;96418.66;5386675;26;19930;-73
2024/04/11 04:43:45;;;;;;;;;;;;;;;3.78;100.00;96409.50;5387328;26;19930;-72
2024/04/11 04:46:15;;;;;;;;;;;;;;;3.64;100.00;96402.66;5387850;26;19930;-72
2024/04/11 04:48:42;;;;;;;;;;;;;;;3.68;100.00;96405.69;5388487;26;20309;-72
2024/04/11 04:51:11;;;;;;;;;;;;;;;3.69;100.00;96400.16;5388627;26;20382;-72
2024/04/11 04:53:40;;;;;;;;;;;;;;;3.74;100.00;96404.81;5388043;26;20363;-73
2024/04/11 04:56:09;;;;;;;;;;;;;;;3.79;100.00;96395.19;5387275;26;19929;-74
2024/04/11 04:58:39;;;;;;;;;;;;;;;3.82;100.00;96392.06;5383944;26;19930;-72
2024/04/11 05:01:08;;;;;;;;;;;;;;;3.84;100.00;96379.38;5389422;26;20329;-73
2024/04/11 05:03:35;;;;;;;;;;;;;;;3.87;100.00;96368.28;5387705;26;20310;-72
2024/04/11 05:06:03;;;;;;;;;;;;;;;3.92;100.00;96365.00;5385994;26;19935;-73
2024/04/11 05:08:34;;;;;;;;;;;;;;;3.97;100.00;96361.69;5382355;26;19929;-74
2024/04/11 05:11:10;;;;;;;;;;;;;;;4.03;100.00;96355.47;5385881;26;19928;-73
2024/04/11 05:13:38;;;;;;;;;;;;;;;4.09;100.00;96349.31;5387403;26;19933;-71
2024/04/11 05:16:06;;;;;;;;;;;;;;;4.20;100.00;96337.94;5388094;26;19929;-73
2024/04/11 05:18:37;;;;;;;;;;;;;;;4.26;100.00;96308.59;5413873;26;19929;-73
2024/04/11 05:21:09;;;;;;;;;;;;;;;4.31;100.00;96305.25;5388134;26;19930;-72
2024/04/11 05:23:38;;;;;;;;;;;;;;;4.35;100.00;96293.16;5385249;26;19941;-73
2024/04/11 05:26:14;;;;;;;;;;;;;;;4.40;100.00;96293.28;5387501;26;19930;-72
2024/04/11 05:28:45;;;;;;;;;;;;;;;4.40;100.00;96279.97;5387827;26;19936;-73
2024/04/11 05:31:18;;;;;;;;;;;;;;;4.55;100.00;96277.75;5387874;26;19928;-73
2024/04/11 05:33:47;;;;;;;;;;;;;;;4.65;100.00;96270.06;5388690;26;20509;-73
2024/04/11 05:36:20;;;;;;;;;;;;;;;4.76;100.00;96268.47;5387502;26;20390;-73
2024/04/11 05:38:48;;;;;;;;;;;;;;;5.00;100.00;96245.41;5386476;26;19929;-73
2024/04/11 05:41:15;;;;;;;;;;;;;;;5.27;100.00;96230.63;5386501;26;20632;-73
2024/04/11 05:43:43;;;;;;;;;;;;;;;5.34;100.00;96234.00;5386135;26;19965;-74
2024/04/11 05:46:10;;;;;;;;;;;;;;;5.55;100.00;96219.31;5387865;26;19929;-73
2024/04/11 05:48:38;;;;;;;;;;;;;;;5.74;100.00;96202.16;5386935;26;19960;-74
2024/04/11 05:51:05;;;;;;;;;;;;;;;5.89;100.00;96193.69;5383013;26;19936;-72
2024/04/11 05:53:36;;;;;;;;;;;;;;;5.92;100.00;96190.53;5385140;26;20362;-73
2024/04/11 05:56:04;;;;;;;;;;;;;;;5.99;100.00;96193.91;5387374;26;19935;-73
2024/04/11 05:58:31;;;;;;;;;;;;;;;6.06;100.00;96186.59;5384535;26;20556;-74
2024/04/11 06:01:00;;;;;;;;;;;;;;;6.04;100.00;96175.34;5384324;26;20661;-73
2024/04/11 06:03:28;;;;;;;;;;;;;;;6.01;100.00;96170.47;5387024;26;19929;-73
2024/04/11 06:05:56;;;;;;;;;;;;;;;6.05;100.00;96168.97;5386158;26;20527;-73
2024/04/11 06:08:23;;;;;;;;;;;;;;;6.13;100.00;96159.78;5385011;26;19929;-72
2024/04/11 06:10:51;;;;;;;;;;;;;;;6.24;100.00;96150.91;5377901;26;19929;-73
2024/04/11 06:13:18;;;;;;;;;;;;;;;6.36;100.00;96156.19;5382524;26;19928;-72
2024/04/11 06:15:47;;;;;;;;;;;;;;;6.50;100.00;96142.31;5385980;26;20454;-73
2024/04/11 06:18:16;;;;;;;;;;;;;;;6.64;100.00;96134.84;5398666;26;19929;-73
2024/04/11 06:20:44;;;;;;;;;;;;;;;6.80;100.00;96123.34;5384824;26;20011;-73
2024/04/11 06:23:21;;;;;;;;;;;;;;;6.93;100.00;96123.06;5383700;26;19935;-73
2024/04/11 06:25:48;;;;;;;;;;;;;;;7.10;100.00;96112.38;5383760;26;19929;-72
2024/04/11 06:28:16;;;;;;;;;;;;;;;7.27;100.00;96107.00;5391144;26;19954;-72
2024/04/11 06:30:46;;;;;;;;;;;;;;;7.53;100.00;96097.47;5384370;26;19940;-73
2024/04/11 06:33:16;;;;;;;;;;;;;;;7.72;100.00;96094.28;5384781;26;19930;-73
2024/04/11 06:35:47;;;;;;;;;;;;;;;7.89;100.00;96096.09;5384524;26;19930;-72
2024/04/11 06:38:14;;;;;;;;;;;;;;;8.11;100.00;96089.66;5387204;26;20262;-73
2024/04/11 06:40:45;;;;;;;;;;;;;;;8.21;100.00;96091.66;5392346;26;19936;-73
2024/04/11 06:43:16;;;;;;;;;;;;;;;8.36;100.00;96088.34;5384594;26;19936;-73
2024/04/11 06:45:43;;;;;;;;;;;;;;;8.49;100.00;96094.13;5383131;26;19929;-74
2024/04/11 06:48:12;;;;;;;;;;;;;;;8.62;100.00;96086.75;5386356;26;19936;-71
2024/04/11 06:50:39;;;;;;;;;;;;;;;8.87;100.00;96081.59;5386005;26;19929;-73
2024/04/11 06:53:08;;;;;;;;;;;;;;;8.78;100.00;96100.03;5383596;26;20425;-72
2024/04/11 06:55:35;;;;;;;;;;;;;;;9.11;100.00;96111.56;5380692;26;19936;-73
2024/04/11 06:58:02;;;;;;;;;;;;;;;9.52;100.00;96108.09;5383275;26;19939;-74
2024/04/11 07:00:36;;;;;;;;;;;;;;;10.15;100.00;96125.09;5384509;26;19929;-72
2024/04/11 07:03:16;;;;;;;;;;;;;;;11.43;100.00;96176.22;5384134;26;20356;-72
2024/04/11 07:05:55;;;;;;;;;;;;;;;12.14;100.00;96291.22;5385547;26;19929;-72
2024/04/11 07:08:32;;;;;;;;;;;;;;;11.92;100.00;96420.81;5385232;26;19929;-73
2024/04/11 07:11:12;;;;;;;;;;;;;;;11.91;100.00;96500.00;5386432;26;19936;-73
2024/04/11 07:13:40;;;;;;;;;;;;;;;10.85;100.00;96584.41;5383150;26;19935;-72
2024/04/11 07:16:07;;;;;;;;;;;;;;;10.23;100.00;96610.91;5381993;26;19928;-72
2024/04/11 07:18:44;;;;;;;;;;;;;;;9.59;100.00;96623.22;5386363;26;20272;-73
2024/04/11 07:21:15;;;;;;;;;;;;;;;9.74;100.00;96616.19;5389300;26;19935;-73
2024/04/11 07:23:45;;;;;;;;;;;;;;;10.08;100.00;96608.03;5387667;26;19930;-73
2024/04/11 07:26:12;;;;;;;;;;;;;;;10.31;100.00;96598.91;5389205;26;20268;-73
2024/04/11 07:28:41;;;;;;;;;;;;;;;10.47;100.00;96614.13;5388538;26;19929;-73
2024/04/11 07:31:09;;;;;;;;;;;;;;;10.51;100.00;96636.78;5388973;26;19963;-73
2024/04/11 07:33:36;;;;;;;;;;;;;;;10.85;100.00;96643.59;5390583;26;20366;-73
2024/04/11 07:36:07;;;;;;;;;;;;;;;10.68;100.00;96677.81;5383332;26;19929;-74
2024/04/11 07:38:35;;;;;;;;;;;;;;;10.79;100.00;96690.31;5389167;26;19929;-73
2024/04/11 07:41:16;;;;;;;;;;;;;;;10.82;100.00;96730.16;5389342;26;19933;-73
2024/04/11 07:43:45;;;;;;;;;;;;;;;11.28;100.00;96736.81;5391504;26;19935;-73
2024/04/11 07:46:14;;;;;;;;;;;;;;;11.60;100.00;96765.66;5387912;26;19929;-72
2024/04/11 07:48:48;;;;;;;;;;;;;;;11.68;100.00;96800.22;5387168;26;19929;-74
2024/04/11 07:51:18;;;;;;;;;;;;;;;11.76;100.00;96824.03;5385664;26;21302;-74
2024/04/11 07:53:48;;;;;;;;;;;;;;;11.53;100.00;96854.72;5387136;26;19929;-72
2024/04/11 07:56:20;;;;;;;;;;;;;;;11.98;100.00;96848.97;5385052;26;20282;-74
2024/04/11 07:58:48;;;;;;;;;;;;;;;12.21;100.00;96877.47;5387213;26;19935;-72
2024/04/11 08:01:15;;;;;;;;;;;;;;;12.33;100.00;96902.41;5387043;26;20387;-74
2024/04/11 08:03:45;;;;;;;;;;;;;;;11.89;100.00;96925.97;5388952;26;20493;-74
2024/04/11 08:06:14;;;;;;;;;;;;;;;11.83;100.00;96947.72;5389304;26;20402;-73
2024/04/11 08:08:42;;;;;;;;;;;;;;;12.08;100.00;96961.47;5387293;26;19930;-74
2024/04/11 08:11:10;;;;;;;;;;;;;;;12.06;100.00;96982.44;5386471;26;19929;-73
2024/04/11 08:13:37;;;;;;;;;;;;;;;12.33;100.00;97012.13;5386142;26;19928;-73
2024/04/11 08:16:10;;;;;;;;;;;;;;;12.54;100.00;97040.09;5384754;26;19936;-73
2024/04/11 08:18:37;;;;;;;;;;;;;;;12.69;100.00;97056.44;5382862;26;20016;-74
2024/04/11 08:21:08;;;;;;;;;;;;;;;12.97;100.00;97042.66;5386507;26;20382;-73
2024/04/11 08:23:36;;;;;;;;;;;;;;;12.62;100.00;97070.13;5389100;26;19929;-73
2024/04/11 08:26:13;;;;;;;;;;;;;;;13.03;100.00;97075.88;5387827;26;19933;-74
2024/04/11 08:28:41;;;;;;;;;;;;;;;12.93;100.00;97106.28;5385577;26;19929;-73
2024/04/11 08:31:11;;;;;;;;;;;;;;;13.14;100.00;97127.06;5385398;26;19929;-73
2024/04/11 08:33:38;;;;;;;;;;;;;;;12.63;100.00;97141.09;5383721;26;19933;-73
2024/04/11 08:36:09;;;;;;;;;;;;;;;13.27;100.00;97150.09;5388366;26;19928;-73
2024/04/11 08:38:40;;;;;;;;;;;;;;;13.01;100.00;97151.72;5383579;26;19930;-74
2024/04/11 08:41:09;;;;;;;;;;;;;;;13.47;100.00;97152.16;5385807;26;19929;-73
2024/04/11 08:43:37;;;;;;;;;;;;;;;13.50;100.00;97157.03;5386916;26;20585;-76
2024/04/11 08:46:08;;;;;;;;;;;;;;;14.01;100.00;97164.41;5386926;26;19929;-74
2024/04/11 08:48:39;;;;;;;;;;;;;;;14.22;100.00;97191.56;5387060;26;19994;-73
2024/04/11 08:51:20;;;;;;;;;;;;;;;14.48;100.00;97204.16;5386427;26;19936;-75
2024/04/11 08:53:49;;;;;;;;;;;;;;;13.43;100.00;97219.38;5385269;26;20096;-74
2024/04/11 08:56:30;;;;;;;;;;;;;;;13.74;100.00;97215.03;5387878;26;19936;-74
2024/04/11 08:58:58;;;;;;;;;;;;;;;13.71;100.00;97215.56;5387178;26;20343;-74
2024/04/11 09:01:25;;;;;;;;;;;;;;;14.06;100.00;97206.06;5385494;26;19929;-75
2024/04/11 09:03:53;;;;;;;;;;;;;;;14.33;100.00;97221.09;5382369;26;20472;-75
2024/04/11 09:06:26;;;;;;;;;;;;;;;14.39;100.00;97236.31;5389258;26;19936;-74
2024/04/11 09:08:55;;;;;;;;;;;;;;;14.54;100.00;97240.97;5390552;26;19935;-75
2024/04/11 09:11:25;;;;;;;;;;;;;;;14.80;100.00;97242.75;5387596;26;19935;-74
2024/04/11 09:13:58;;;;;;;;;;;;;;;14.71;100.00;97252.44;5385790;26;20351;-74
2024/04/11 09:16:28;;;;;;;;;;;;;;;14.45;100.00;97261.53;5382769;26;19929;-74
2024/04/11 09:19:09;;;;;;;;;;;;;;;14.13;100.00;97266.97;5386186;26;19936;-73
2024/04/11 09:21:46;;;;;;;;;;;;;;;14.02;100.00;97259.88;5382130;26;20200;-74
2024/04/11 09:24:17;;;;;;;;;;;;;;;14.53;100.00;97252.91;5386390;26;20260;-74
2024/04/11 09:26:46;;;;;;;;;;;;;;;14.43;100.00;97281.78;5386322;26;19936;-71
2024/04/11 09:29:17;;;;;;;;;;;;;;;14.96;100.00;97276.13;5388516;26;20326;-74
2024/04/11 09:31:49;;;;;;;;;;;;;;;15.09;100.00;97283.75;5383588;26;20328;-72
2024/04/11 09:34:20;;;;;;;;;;;;;;;14.86;100.00;97292.31;5383922;26;19929;-74
2024/04/11 09:36:49;;;;;;;;;;;;;;;15.08;100.00;97267.75;5390280;26;19929;-74
2024/04/11 09:39:41;;;;;;;;;;;;;;;15.49;100.00;97253.19;5386448;26;19929;-75
2024/04/11 09:42:20;;;;;;;;;;;;;;;15.56;100.00;97258.41;5381829;26;19930;-74
2024/04/11 09:44:55;;;;;;;;;;;;;;;15.40;100.00;97265.69;5387997;26;20320;-74
2024/04/11 09:47:26;;;;;;;;;;;;;;;15.70;100.00;97273.06;5399762;26;19929;-74
2024/04/11 09:49:59;;;;;;;;;;;;;;;15.81;100.00;97271.16;5387736;26;19935;-74
2024/04/11 09:52:28;;;;;;;;;;;;;;;16.18;100.00;97276.31;5382505;26;19936;-74
2024/04/11 09:54:55;;;;;;;;;;;;;;;15.49;100.00;97293.03;5388901;26;19929;-74
2024/04/11 09:57:24;;;;;;;;;;;;;;;16.03;100.00;97284.47;5385495;26;19929;-75
2024/04/11 09:59:51;;;;;;;;;;;;;;;15.23;100.00;97297.59;5386814;26;19929;-74
2024/04/11 10:02:20;;;;;;;;;;;;;;;15.70;100.00;97302.91;5387124;26;20218;-74
2024/04/11 10:04:47;;;;;;;;;;;;;;;15.85;100.00;97305.59;5383690;26;20353;-75
2024/04/11 10:07:19;;;;;;;;;;;;;;;15.71;100.00;97319.94;5384954;26;19929;-74
2024/04/11 10:09:47;;;;;;;;;;;;;;;15.60;100.00;97329.16;5385936;26;19929;-74
2024/04/11 10:12:19;;;;;;;;;;;;;;;15.62;100.00;97321.59;5388320;26;20382;-74
2024/04/11 10:14:51;;;;;;;;;;;;;;;15.33;100.00;97326.63;5388495;26;19940;-74
2024/04/11 10:17:24;;;;;;;;;;;;;;;15.39;100.00;97329.06;5384753;26;19930;-74
2024/04/11 10:19:53;;;;;;;;;;;;;;;15.48;100.00;97322.06;5384251;26;19930;-74
2024/04/11 10:22:24;;;;;;;;;;;;;;;15.05;100.00;97323.25;5382195;26;19929;-74
2024/04/11 10:25:01;;;;;;;;;;;;;;;15.13;100.00;97319.22;5382789;26;20276;-74
2024/04/11 10:27:29;;;;;;;;;;;;;;;14.92;100.00;97317.50;5387956;26;19936;-74
2024/04/11 10:30:05;;;;;;;;;;;;;;;15.05;100.00;97314.34;5384330;26;19936;-74
2024/04/11 10:32:36;;;;;;;;;;;;;;;15.33;100.00;97313.88;5387566;26;20259;-74
2024/04/11 10:35:04;;;;;;;;;;;;;;;15.63;100.00;97334.06;5384467;26;20480;-75
2024/04/11 10:37:35;;;;;;;;;;;;;;;15.77;100.00;97338.69;5384638;26;19929;-73
2024/04/11 10:40:02;;;;;;;;;;;;;;;15.78;100.00;97339.50;5386736;26;19929;-74
2024/04/11 10:42:36;;;;;;;;;;;;;;;15.74;100.00;97343.81;5386355;26;19929;-74
2024/04/11 10:45:07;;;;;;;;;;;;;;;15.74;100.00;97346.53;5382434;26;19936;-74
2024/04/11 10:47:38;;;;;;;;;;;;;;;15.80;100.00;97338.13;5386130;26;19929;-74
2024/04/11 10:50:09;;;;;;;;;;;;;;;15.90;100.00;97329.22;5383865;26;20381;-71
2024/04/11 10:52:37;;;;;;;;;;;;;;;15.70;100.00;97337.31;5388280;26;19935;-74
2024/04/11 10:55:12;;;;;;;;;;;;;;;15.68;100.00;97343.00;5390765;26;20255;-74
2024/04/11 10:57:44;;;;;;;;;;;;;;;15.65;100.00;97334.56;5385338;26;19933;-74
2024/04/11 11:00:12;;;;;;;;;;;;;;;15.82;100.00;97341.41;5387931;26;19929;-74
2024/04/11 11:02:40;;;;;;;;;;;;;;;15.89;100.00;97343.84;5389080;26;20568;-74
2024/04/11 11:05:08;;;;;;;;;;;;;;;15.81;100.00;97357.94;5387311;26;19930;-74
2024/04/11 11:07:40;;;;;;;;;;;;;;;15.68;100.00;97359.28;5387546;26;20274;-74
2024/04/11 11:10:14;;;;;;;;;;;;;;;15.52;100.00;97352.97;5388975;26;19929;-74
2024/04/11 11:12:42;;;;;;;;;;;;;;;15.72;100.00;97348.69;5388731;26;19930;-74
2024/04/11 11:15:13;;;;;;;;;;;;;;;15.86;100.00;97344.38;5390016;26;19930;-74
2024/04/11 11:17:40;;;;;;;;;;;;;;;15.31;100.00;97353.97;5387494;26;19935;-74
2024/04/11 11:20:10;;;;;;;;;;;;;;;15.70;100.00;97340.03;5387843;26;19936;-71
2024/04/11 11:22:40;;;;;;;;;;;;;;;15.99;100.00;97343.06;5387893;26;20391;-74
2024/04/11 11:25:08;;;;;;;;;;;;;;;16.19;100.00;97349.31;5417036;26;20294;-71
2024/04/11 11:27:38;;;;;;;;;;;;;;;16.36;100.00;97352.53;5388657;26;19929;-74
2024/04/11 11:30:06;;;;;;;;;;;;;;;16.44;100.00;97344.97;5386708;26;19929;-74
2024/04/11 11:32:37;;;;;;;;;;;;;;;16.53;100.00;97349.53;5389197;26;19935;-74
2024/04/11 11:35:09;;;;;;;;;;;;;;;16.48;100.00;97346.03;5390673;26;19968;-74
2024/04/11 11:37:39;;;;;;;;;;;;;;;16.42;100.00;97350.66;5388288;26;19929;-73
2024/04/11 11:40:38;;;;;;;;;;;;;;;16.21;100.00;97347.13;5388216;26;20360;-74
2024/04/11 11:42:56;;;;;;;;;;;;;;;16.24;100.00;97341.16;5387133;26;19930;-73
2024/04/11 11:45:27;;;;;;;;;;;;;;;16.26;100.00;97340.88;5388212;26;20414;-73
2024/04/11 11:47:57;;;;;;;;;;;;;;;16.43;100.00;97340.63;5390304;26;19929;-74
2024/04/11 11:50:35;;;;;;;;;;;;;;;16.44;100.00;97348.47;5388449;26;20283;-74
2024/04/11 11:53:24;;;;;;;;;;;;;;;16.70;100.00;97333.00;5389080;26;19929;-74
2024/04/11 11:55:57;;;;;;;;;;;;;;;16.84;100.00;97344.91;5387442;26;19933;-74
2024/04/11 11:58:30;;;;;;;;;;;;;;;16.79;100.00;97344.94;5390674;26;20263;-73
2024/04/11 12:01:02;;;;;;;;;;;;;;;16.69;100.00;97343.03;5388980;26;20263;-74
2024/04/11 12:03:31;;;;;;;;;;;;;;;16.78;100.00;97342.47;5386811;26;20270;-73
2024/04/11 12:06:05;;;;;;;;;;;;;;;16.79;100.00;97344.94;5388913;26;19928;-73
2024/04/11 12:08:37;;;;;;;;;;;;;;;16.73;100.00;97344.09;5393396;26;19929;-73
2024/04/11 12:13:42;;;;;;;;;;;;;;;16.29;100.00;97343.06;5387767;26;20363;-73
2024/04/11 12:16:15;;;;;;;;;;;;;;;16.40;100.00;97339.25;5384272;26;20378;-73
2024/04/11 12:18:46;;;;;;;;;;;;;;;16.40;100.00;97344.69;5392574;26;19961;-73
2024/04/11 12:21:26;;;;;;;;;;;;;;;16.56;100.00;97332.72;5385449;26;20435;-73
2024/04/11 12:23:56;;;;;;;;;;;;;;;16.57;100.00;97338.97;5387854;26;19935;-74
2024/04/11 12:26:26;;;;;;;;;;;;;;;16.63;100.00;97346.84;5387398;26;19936;-74
2024/04/11 12:28:56;;;;;;;;;;;;;;;16.52;100.00;97352.53;5389542;26;19929;-75
2024/04/11 12:31:28;;;;;;;;;;;;;;;16.51;100.00;97343.56;5385752;26;19936;-74
2024/04/11 12:33:59;;;;;;;;;;;;;;;15.96;100.00;97338.97;5385950;26;20729;-73
2024/04/11 12:36:56;;;;;;;;;;;;;;;15.71;100.00;97339.75;5385348;26;19929;-73
2024/04/11 12:39:33;;;;;;;;;;;;;;;16.08;100.00;97339.50;5387851;26;19929;-73
2024/04/11 12:42:02;;;;;;;;;;;;;;;16.38;100.00;97335.16;5385911;26;20344;-74
2024/04/11 12:44:35;;;;;;;;;;;;;;;16.42;100.00;97336.28;5387084;26;19929;-73
2024/04/11 12:47:13;;;;;;;;;;;;;;;16.70;100.00;97331.09;5394177;26;20065;-74
2024/04/11 12:49:51;;;;;;;;;;;;;;;16.57;100.00;97336.25;5387998;26;19936;-72
2024/04/11 12:52:26;;;;;;;;;;;;;;;16.46;100.00;97340.06;5388658;26;19956;-73
2024/04/11 12:54:58;;;;;;;;;;;;;;;16.54;100.00;97328.63;5385368;26;19930;-73
2024/04/11 12:57:29;;;;;;;;;;;;;;;16.59;100.00;97320.47;5388465;26;19937;-74
2024/04/11 13:00:07;;;;;;;;;;;;;;;16.70;100.00;97316.69;5386492;26;19940;-73